createdAt,value
2019-03-28T00:01:13.737Z,99.90
2019-03-28T00:03:42.928Z,99.90
2019-03-28T00:06:12.017Z,99.90
2019-03-28T00:08:43.066Z,99.90
2019-03-28T00:11:11.993Z,99.90
2019-03-28T00:13:41.488Z,99.90
2019-03-28T00:16:11.067Z,99.90
2019-03-28T00:18:40.377Z,99.90
2019-03-28T00:21:10.136Z,99.90
2019-03-28T00:23:40.787Z,99.90
2019-03-28T00:26:09.760Z,99.90
2019-03-28T00:28:38.793Z,99.90
2019-03-28T00:31:07.888Z,99.90
2019-03-28T00:33:36.825Z,99.90
2019-03-28T00:36:05.841Z,99.90
2019-03-28T00:38:34.921Z,99.90
2019-03-28T00:41:06.401Z,99.90
2019-03-28T00:43:35.489Z,99.90
2019-03-28T00:46:04.636Z,99.90
2019-03-28T00:48:33.762Z,99.90
2019-03-28T00:51:02.867Z,99.90
2019-03-28T00:53:32.520Z,99.90
2019-03-28T00:56:02.296Z,99.90
2019-03-28T00:58:32.027Z,99.90
2019-03-28T01:01:05.097Z,99.90
2019-03-28T01:03:34.449Z,99.90
2019-03-28T01:06:03.536Z,99.90
2019-03-28T01:08:34.512Z,99.90
2019-03-28T01:11:03.609Z,99.90
2019-03-28T01:13:32.960Z,99.90
2019-03-28T01:16:02.008Z,99.90
2019-03-28T01:18:31.200Z,99.90
2019-03-28T01:21:00.368Z,99.90
2019-03-28T01:23:30.443Z,99.90
2019-03-28T01:25:59.786Z,99.90
2019-03-28T01:28:30.066Z,99.90
2019-03-28T01:30:59.531Z,99.90
2019-03-28T01:33:28.456Z,99.90
2019-03-28T01:36:00.454Z,99.90
2019-03-28T01:38:29.832Z,99.90
2019-03-28T01:40:59.352Z,99.90
2019-03-28T01:43:28.449Z,99.90
2019-03-28T01:45:57.440Z,99.90
2019-03-28T01:48:26.440Z,99.90
2019-03-28T01:50:55.714Z,99.90
2019-03-28T01:53:24.592Z,99.90
2019-03-28T01:55:53.817Z,99.90
2019-03-28T01:58:22.796Z,99.90
2019-03-28T02:00:51.728Z,99.90
2019-03-28T02:03:21.313Z,99.90
2019-03-28T02:05:50.251Z,99.90
2019-03-28T02:08:19.344Z,99.90
2019-03-28T02:10:49.326Z,99.90
2019-03-28T02:13:18.998Z,99.90
2019-03-28T02:15:48.290Z,99.90
2019-03-28T02:18:17.625Z,99.90
2019-03-28T02:20:46.913Z,99.90
2019-03-28T02:23:15.849Z,99.90
2019-03-28T02:25:45.025Z,99.90
2019-03-28T02:28:14.113Z,99.90
2019-03-28T02:30:43.076Z,99.90
2019-03-28T02:33:12.233Z,99.90
2019-03-28T02:35:41.771Z,99.90
2019-03-28T02:38:11.209Z,99.90
2019-03-28T02:40:41.092Z,99.90
2019-03-28T02:43:10.179Z,99.90
2019-03-28T02:45:39.386Z,99.90
2019-03-28T02:48:08.797Z,99.90
2019-03-28T02:50:38.034Z,99.90
2019-03-28T02:53:07.185Z,99.90
2019-03-28T02:55:36.143Z,99.90
2019-03-28T02:58:05.064Z,99.90
2019-03-28T03:00:34.202Z,99.90
2019-03-28T03:03:03.545Z,99.90
2019-03-28T03:05:32.528Z,99.90
2019-03-28T03:08:01.574Z,99.90
2019-03-28T03:10:30.576Z,99.90
2019-03-28T03:12:59.986Z,99.90
2019-03-28T03:15:29.938Z,99.90
2019-03-28T03:17:59.244Z,99.90
2019-03-28T03:20:28.338Z,99.90
2019-03-28T03:22:57.440Z,99.90
2019-03-28T03:25:26.402Z,99.90
2019-03-28T03:27:58.719Z,99.90
2019-03-28T03:30:26.122Z,99.90
2019-03-28T03:32:55.311Z,99.90
2019-03-28T03:35:24.369Z,99.90
2019-03-28T03:37:53.272Z,99.90
2019-03-28T03:40:22.281Z,99.90
2019-03-28T03:42:51.398Z,99.90
2019-03-28T03:45:21.043Z,99.90
2019-03-28T03:47:50.465Z,99.90
2019-03-28T03:50:29.851Z,99.90
2019-03-28T03:52:58.809Z,99.90
2019-03-28T03:55:27.740Z,99.90
2019-03-28T03:58:13.805Z,99.90
2019-03-28T04:00:36.152Z,99.90
2019-03-28T04:03:05.575Z,99.90
2019-03-28T04:05:34.562Z,99.90
2019-03-28T04:08:03.547Z,99.90
2019-03-28T04:10:34.177Z,99.90
2019-03-28T04:13:03.293Z,99.90
2019-03-28T04:15:32.252Z,99.90
2019-03-28T04:18:01.778Z,99.90
2019-03-28T04:20:31.030Z,99.90
2019-03-28T04:23:00.011Z,99.90
2019-03-28T04:25:29.074Z,99.90
2019-03-28T04:27:58.090Z,99.90
2019-03-28T04:30:27.354Z,99.90
2019-03-28T04:32:56.570Z,99.90
2019-03-28T04:35:25.481Z,99.90
2019-03-28T04:37:54.409Z,99.90
2019-03-28T04:40:23.561Z,99.90
2019-03-28T04:42:52.601Z,99.90
2019-03-28T04:45:21.851Z,99.90
2019-03-28T04:47:50.913Z,99.90
2019-03-28T04:50:19.913Z,99.90
2019-03-28T04:52:48.905Z,99.90
2019-03-28T04:55:18.146Z,99.90
2019-03-28T04:57:47.859Z,99.90
2019-03-28T05:00:17.306Z,99.90
2019-03-28T05:02:46.651Z,99.90
2019-03-28T05:05:15.986Z,99.90
2019-03-28T05:07:45.401Z,99.90
2019-03-28T05:10:15.328Z,99.90
2019-03-28T05:12:44.603Z,99.90
2019-03-28T05:15:14.194Z,99.90
2019-03-28T05:17:43.161Z,99.90
2019-03-28T05:20:13.430Z,99.90
2019-03-28T05:22:42.648Z,99.90
2019-03-28T05:25:11.668Z,99.90
2019-03-28T05:27:40.562Z,99.90
2019-03-28T05:30:10.226Z,99.90
2019-03-28T05:32:39.265Z,99.90
2019-03-28T05:35:08.643Z,99.90
2019-03-28T05:37:37.595Z,99.90
2019-03-28T05:40:08.828Z,99.90
2019-03-28T05:42:39.169Z,99.90
2019-03-28T05:45:08.548Z,99.90
2019-03-28T05:47:37.497Z,99.90
2019-03-28T05:50:07.728Z,99.90
2019-03-28T05:52:36.688Z,99.90
2019-03-28T05:55:07.777Z,99.90
2019-03-28T05:57:38.257Z,99.90
2019-03-28T06:00:07.881Z,99.90
2019-03-28T06:02:36.833Z,99.90
2019-03-28T06:05:07.842Z,99.90
2019-03-28T06:07:37.817Z,99.90
2019-03-28T06:10:08.268Z,99.90
2019-03-28T06:12:38.042Z,99.90
2019-03-28T06:15:08.121Z,99.90
2019-03-28T06:17:37.441Z,99.90
2019-03-28T06:20:08.081Z,99.90
2019-03-28T06:22:36.979Z,99.90
2019-03-28T06:25:06.318Z,99.90
2019-03-28T06:27:35.584Z,99.90
2019-03-28T06:30:06.973Z,99.90
2019-03-28T06:32:42.753Z,99.90
2019-03-28T06:35:06.985Z,99.90
2019-03-28T06:37:35.976Z,99.90
2019-03-28T06:40:05.837Z,99.90
2019-03-28T06:42:34.961Z,99.90
2019-03-28T06:45:06.369Z,99.90
2019-03-28T06:47:35.706Z,99.90
2019-03-28T06:50:06.981Z,99.90
2019-03-28T06:52:35.984Z,99.90
2019-03-28T06:55:05.593Z,99.90
2019-03-28T06:57:34.683Z,99.90
2019-03-28T07:00:05.961Z,99.90
2019-03-28T07:02:35.090Z,99.90
2019-03-28T07:05:05.049Z,99.90
2019-03-28T07:07:34.280Z,99.90
2019-03-28T07:10:04.003Z,99.90
2019-03-28T07:12:32.960Z,99.90
2019-03-28T07:15:02.874Z,99.90
2019-03-28T07:17:32.513Z,99.90
2019-03-28T07:20:02.488Z,99.90
2019-03-28T07:22:33.208Z,99.90
2019-03-28T07:25:03.689Z,99.90
2019-03-28T07:27:33.113Z,99.90
2019-03-28T07:30:02.994Z,99.90
2019-03-28T07:32:32.627Z,99.90
2019-03-28T07:35:01.761Z,99.90
2019-03-28T07:37:30.978Z,99.90
2019-03-28T07:40:00.521Z,99.90
2019-03-28T07:42:29.713Z,99.90
2019-03-28T07:44:58.916Z,99.90
2019-03-28T07:47:28.376Z,99.90
2019-03-28T07:49:57.305Z,99.90
2019-03-28T07:52:27.527Z,99.90
2019-03-28T07:54:57.266Z,99.90
2019-03-28T07:57:27.761Z,99.90
2019-03-28T08:00:04.074Z,99.90
2019-03-28T08:02:27.660Z,99.90
2019-03-28T08:04:56.938Z,99.90
2019-03-28T08:07:26.032Z,99.80
2019-03-28T08:09:55.233Z,99.90
2019-03-28T08:12:24.737Z,99.90
2019-03-28T08:14:53.938Z,99.90
2019-03-28T08:17:23.171Z,99.90
2019-03-28T08:19:52.328Z,99.70
2019-03-28T08:22:21.866Z,99.50
2019-03-28T08:24:51.580Z,99.00
2019-03-28T08:27:20.761Z,98.80
2019-03-28T08:29:49.738Z,98.60
2019-03-28T08:32:20.611Z,98.90
2019-03-28T08:34:50.008Z,98.80
2019-03-28T08:37:19.730Z,99.10
2019-03-28T08:39:50.858Z,98.90
2019-03-28T08:42:19.970Z,99.20
2019-03-28T08:44:49.160Z,99.90
2019-03-28T08:47:18.484Z,99.30
2019-03-28T08:49:47.666Z,98.50
2019-03-28T08:52:16.762Z,98.40
2019-03-28T08:54:46.305Z,98.30
2019-03-28T08:57:15.400Z,98.90
2019-03-28T08:59:45.178Z,98.40
2019-03-28T09:02:14.102Z,97.40
2019-03-28T09:04:43.281Z,97.00
2019-03-28T09:07:12.217Z,96.00
2019-03-28T09:09:41.324Z,95.30
2019-03-28T09:12:10.379Z,94.60
2019-03-28T09:14:39.320Z,94.90
2019-03-28T09:17:08.385Z,92.80
2019-03-28T09:19:38.960Z,93.10
2019-03-28T09:22:08.040Z,92.60
2019-03-28T09:24:37.402Z,92.40
2019-03-28T09:27:06.946Z,91.70
2019-03-28T09:29:36.056Z,92.50
2019-03-28T09:32:05.346Z,90.40
2019-03-28T09:34:34.528Z,91.00
2019-03-28T09:37:03.521Z,85.30
2019-03-28T09:39:32.737Z,89.60
2019-03-28T09:42:01.880Z,85.90
2019-03-28T09:44:30.928Z,87.70
2019-03-28T09:47:00.137Z,85.40
2019-03-28T09:49:29.144Z,86.50
2019-03-28T09:51:58.320Z,83.60
2019-03-28T09:54:27.288Z,83.40
2019-03-28T09:56:56.185Z,87.20
2019-03-28T09:59:25.240Z,86.80
2019-03-28T10:01:54.240Z,86.80
2019-03-28T10:04:23.216Z,84.40
2019-03-28T10:06:52.201Z,82.20
2019-03-28T10:09:21.345Z,83.60
2019-03-28T10:11:51.257Z,81.90
2019-03-28T10:14:20.865Z,77.30
2019-03-28T10:16:50.289Z,75.90
2019-03-28T10:19:19.393Z,79.60
2019-03-28T10:21:48.914Z,78.70
2019-03-28T10:24:18.409Z,79.00
2019-03-28T10:26:47.805Z,76.20
2019-03-28T10:29:16.874Z,74.40
2019-03-28T10:31:46.224Z,75.50
2019-03-28T10:34:15.673Z,76.30
2019-03-28T10:36:44.840Z,72.20
2019-03-28T10:39:14.161Z,75.30
2019-03-28T10:41:43.329Z,75.20
2019-03-28T10:44:12.176Z,72.00
2019-03-28T10:46:41.240Z,74.10
2019-03-28T10:49:10.344Z,73.80
2019-03-28T10:51:39.480Z,71.50
2019-03-28T10:54:19.327Z,68.60
2019-03-28T10:56:51.207Z,70.60
2019-03-28T10:59:22.377Z,73.20
2019-03-28T11:01:49.131Z,69.60
2019-03-28T11:04:11.256Z,71.60
2019-03-28T11:06:40.145Z,74.70
2019-03-28T11:09:09.192Z,73.20
2019-03-28T11:11:38.284Z,73.20
2019-03-28T11:14:07.633Z,73.20
2019-03-28T11:16:36.688Z,72.50
2019-03-28T11:19:05.873Z,74.10
2019-03-28T11:21:35.289Z,73.40
2019-03-28T11:24:04.312Z,72.20
2019-03-28T11:26:33.536Z,74.60
2019-03-28T11:29:02.762Z,73.90
2019-03-28T11:31:45.285Z,74.40
2019-03-28T11:34:03.042Z,76.40
2019-03-28T11:36:32.200Z,74.20
2019-03-28T11:39:02.836Z,74.00
2019-03-28T11:41:32.172Z,75.40
2019-03-28T11:44:01.304Z,75.10
2019-03-28T11:46:30.437Z,75.10
2019-03-28T11:49:00.247Z,76.30
2019-03-28T11:51:30.457Z,75.30
2019-03-28T11:53:59.808Z,75.00
2019-03-28T11:56:29.058Z,77.60
2019-03-28T11:58:58.223Z,76.70
2019-03-28T12:01:27.899Z,74.10
2019-03-28T12:03:57.112Z,71.70
2019-03-28T12:06:26.249Z,74.30
2019-03-28T12:08:56.022Z,73.50
2019-03-28T12:11:25.529Z,73.90
2019-03-28T12:13:54.650Z,73.60
2019-03-28T12:16:23.954Z,74.00
2019-03-28T12:18:53.034Z,73.50
2019-03-28T12:21:22.128Z,71.10
2019-03-28T12:23:51.280Z,73.30
2019-03-28T12:26:20.680Z,73.00
2019-03-28T12:28:49.899Z,71.90
2019-03-28T12:31:19.224Z,71.50
2019-03-28T12:33:48.402Z,71.00
2019-03-28T12:36:17.489Z,70.10
2019-03-28T12:38:46.569Z,69.00
2019-03-28T12:41:15.722Z,70.80
2019-03-28T12:43:45.018Z,69.70
2019-03-28T12:46:14.408Z,68.00
2019-03-28T12:48:43.658Z,68.20
2019-03-28T12:51:12.688Z,68.60
2019-03-28T12:53:41.772Z,68.70
2019-03-28T12:56:10.633Z,67.60
2019-03-28T12:58:39.792Z,67.30
2019-03-28T13:01:08.848Z,67.50
2019-03-28T13:03:45.317Z,68.20
2019-03-28T13:06:08.465Z,67.40
2019-03-28T13:08:37.659Z,66.80
2019-03-28T13:11:06.704Z,70.50
2019-03-28T13:13:35.833Z,68.10
2019-03-28T13:16:05.494Z,67.80
2019-03-28T13:18:36.230Z,67.80
2019-03-28T13:21:13.292Z,67.00
2019-03-28T13:23:35.841Z,65.30
2019-03-28T13:26:04.856Z,65.30
2019-03-28T13:28:33.913Z,65.20
2019-03-28T13:31:02.929Z,63.20
2019-03-28T13:33:31.929Z,65.40
2019-03-28T13:36:01.065Z,63.60
2019-03-28T13:38:30.064Z,65.10
2019-03-28T13:40:59.584Z,61.60
2019-03-28T13:43:28.610Z,64.30
2019-03-28T13:45:57.816Z,64.60
2019-03-28T13:48:26.868Z,62.00
2019-03-28T13:50:55.979Z,57.70
2019-03-28T13:53:38.375Z,61.30
2019-03-28T13:55:55.961Z,61.00
2019-03-28T13:58:25.793Z,60.60
2019-03-28T14:00:56.347Z,61.30
2019-03-28T14:03:25.811Z,61.10
2019-03-28T14:05:55.345Z,61.40
2019-03-28T14:08:24.721Z,60.90
2019-03-28T14:10:54.009Z,59.90
2019-03-28T14:13:23.257Z,63.60
2019-03-28T14:15:52.263Z,61.40
2019-03-28T14:18:21.450Z,58.60
2019-03-28T14:20:50.361Z,58.90
2019-03-28T14:23:19.474Z,59.60
2019-03-28T14:25:48.576Z,62.90
2019-03-28T14:28:17.736Z,59.90
2019-03-28T14:30:46.937Z,59.10
2019-03-28T14:33:16.196Z,60.20
2019-03-28T14:35:45.714Z,61.20
2019-03-28T14:38:17.616Z,61.30
2019-03-28T14:40:46.945Z,61.20
2019-03-28T14:43:16.048Z,59.30
2019-03-28T14:45:45.424Z,58.40
2019-03-28T14:48:14.650Z,60.40
2019-03-28T14:50:44.345Z,58.60
2019-03-28T14:53:13.256Z,58.60
2019-03-28T14:55:42.873Z,60.50
2019-03-28T14:58:12.168Z,62.10
2019-03-28T15:00:47.631Z,62.30
2019-03-28T15:03:25.827Z,61.70
2019-03-28T15:05:48.162Z,61.20
2019-03-28T15:08:17.963Z,61.70
2019-03-28T15:10:47.480Z,59.90
2019-03-28T15:13:16.912Z,60.90
2019-03-28T15:15:46.226Z,60.60
2019-03-28T15:18:15.866Z,59.70
2019-03-28T15:20:45.153Z,62.70
2019-03-28T15:23:14.315Z,59.80
2019-03-28T15:25:43.632Z,57.60
2019-03-28T15:28:13.056Z,58.90
2019-03-28T15:30:42.232Z,58.30
2019-03-28T15:33:11.331Z,59.60
2019-03-28T15:35:40.480Z,59.70
2019-03-28T15:38:09.866Z,59.10
2019-03-28T15:40:38.952Z,59.20
2019-03-28T15:43:08.280Z,58.20
2019-03-28T15:45:37.235Z,57.20
2019-03-28T15:48:06.265Z,58.30
2019-03-28T15:50:35.298Z,57.90
2019-03-28T15:53:04.423Z,58.10
2019-03-28T15:55:33.831Z,58.60
2019-03-28T15:58:02.753Z,61.60
2019-03-28T16:00:31.850Z,59.40
2019-03-28T16:03:00.968Z,60.20
2019-03-28T16:05:29.969Z,60.00
2019-03-28T16:07:59.399Z,58.70
2019-03-28T16:10:28.776Z,59.50
2019-03-28T16:12:58.177Z,60.10
2019-03-28T16:15:27.312Z,60.90
2019-03-28T16:17:57.763Z,60.90
2019-03-28T16:20:26.888Z,62.30
2019-03-28T16:22:56.016Z,60.80
2019-03-28T16:25:25.001Z,61.40
2019-03-28T16:27:54.105Z,61.90
2019-03-28T16:30:36.972Z,61.10
2019-03-28T16:33:07.539Z,61.40
2019-03-28T16:35:36.777Z,61.40
2019-03-28T16:38:06.185Z,62.70
2019-03-28T16:40:36.036Z,62.00
2019-03-28T16:43:05.152Z,62.80
2019-03-28T16:45:34.377Z,63.60
2019-03-28T16:48:03.888Z,64.80
2019-03-28T16:50:34.043Z,64.90
2019-03-28T16:53:03.489Z,65.30
2019-03-28T16:55:32.972Z,66.60
2019-03-28T16:58:02.419Z,65.50
2019-03-28T17:00:38.728Z,66.10
2019-03-28T17:03:09.160Z,66.10
2019-03-28T17:05:41.662Z,65.40
2019-03-28T17:08:10.449Z,66.60
2019-03-28T17:10:47.859Z,67.00
2019-03-28T17:13:17.057Z,68.30
2019-03-28T17:15:46.184Z,70.20
2019-03-28T17:18:18.487Z,72.20
2019-03-28T17:20:46.402Z,72.10
2019-03-28T17:23:15.698Z,72.50
2019-03-28T17:25:44.984Z,74.10
2019-03-28T17:28:14.829Z,75.10
2019-03-28T17:30:44.528Z,78.00
2019-03-28T17:33:13.595Z,82.20
2019-03-28T17:35:42.977Z,84.80
2019-03-28T17:38:13.417Z,83.90
2019-03-28T17:40:42.736Z,84.10
2019-03-28T17:43:12.338Z,85.20
2019-03-28T17:45:41.753Z,87.70
2019-03-28T17:48:11.192Z,89.60
2019-03-28T17:50:40.857Z,89.20
2019-03-28T17:53:11.009Z,90.10
2019-03-28T17:55:40.376Z,90.40
2019-03-28T17:58:09.585Z,91.00
2019-03-28T18:00:39.058Z,91.40
2019-03-28T18:03:09.896Z,91.30
2019-03-28T18:05:40.838Z,92.10
2019-03-28T18:08:10.897Z,92.30
2019-03-28T18:10:40.153Z,92.20
2019-03-28T18:13:09.629Z,91.90
2019-03-28T18:15:38.874Z,91.90
2019-03-28T18:18:07.769Z,92.20
2019-03-28T18:20:38.211Z,92.20
2019-03-28T18:23:07.304Z,92.10
2019-03-28T18:25:36.448Z,92.30
2019-03-28T18:28:08.372Z,92.80
2019-03-28T18:30:40.131Z,92.80
2019-03-28T18:33:10.948Z,92.80
2019-03-28T18:35:41.081Z,92.90
2019-03-28T18:38:11.130Z,93.10
2019-03-28T18:40:40.369Z,93.20
2019-03-28T18:43:12.213Z,93.20
2019-03-28T18:45:43.048Z,93.10
2019-03-28T18:48:26.896Z,92.80
2019-03-28T18:50:44.707Z,92.50
2019-03-28T18:53:13.888Z,92.50
2019-03-28T18:55:42.880Z,92.50
2019-03-28T18:58:12.633Z,93.10
2019-03-28T19:00:41.688Z,93.40
2019-03-28T19:03:11.250Z,93.30
2019-03-28T19:05:40.641Z,93.10
2019-03-28T19:08:11.832Z,93.40
2019-03-28T19:10:41.128Z,93.40
2019-03-28T19:13:10.395Z,93.40
2019-03-28T19:15:39.528Z,93.20
2019-03-28T19:18:08.529Z,93.40
2019-03-28T19:20:37.608Z,93.50
2019-03-28T19:23:07.383Z,92.80
2019-03-28T19:25:36.816Z,93.50
2019-03-28T19:28:07.707Z,94.70
2019-03-28T19:30:38.703Z,94.60
2019-03-28T19:33:08.217Z,94.70
2019-03-28T19:35:39.535Z,94.50
2019-03-28T19:38:11.529Z,94.80
2019-03-28T19:40:42.688Z,94.50
2019-03-28T19:43:20.304Z,94.10
2019-03-28T19:45:42.842Z,94.00
2019-03-28T19:48:12.008Z,94.20
2019-03-28T19:50:41.827Z,94.50
2019-03-28T19:53:11.854Z,94.50
2019-03-28T19:55:41.051Z,94.70
2019-03-28T19:58:13.300Z,94.70
2019-03-28T20:00:41.233Z,94.70
2019-03-28T20:03:10.332Z,94.00
2019-03-28T20:05:47.527Z,94.40
2019-03-28T20:08:16.046Z,94.80
2019-03-28T20:10:41.008Z,94.40
2019-03-28T20:13:09.984Z,95.00
2019-03-28T20:15:38.978Z,96.20
2019-03-28T20:18:09.830Z,96.50
2019-03-28T20:20:39.045Z,96.10
2019-03-28T20:23:08.448Z,96.10
2019-03-28T20:25:37.801Z,96.30
2019-03-28T20:28:09.713Z,96.30
2019-03-28T20:30:38.640Z,96.30
2019-03-28T20:33:09.808Z,96.90
2019-03-28T20:35:38.904Z,96.70
2019-03-28T20:38:08.616Z,96.60
2019-03-28T20:40:37.480Z,96.80
2019-03-28T20:43:08.073Z,96.60
2019-03-28T20:45:37.240Z,97.00
2019-03-28T20:48:06.144Z,96.80
2019-03-28T20:50:34.978Z,96.80
2019-03-28T20:53:04.080Z,97.00
2019-03-28T20:55:33.145Z,96.90
2019-03-28T20:58:02.307Z,96.80
2019-03-28T21:00:38.845Z,97.20
2019-03-28T21:03:09.297Z,96.80
2019-03-28T21:05:40.049Z,96.90
2019-03-28T21:08:09.296Z,97.00
2019-03-28T21:10:38.425Z,97.20
2019-03-28T21:13:07.872Z,97.20
2019-03-28T21:15:36.935Z,97.20
2019-03-28T21:18:06.232Z,97.10
2019-03-28T21:20:35.267Z,97.00
2019-03-28T21:23:05.436Z,97.00
2019-03-28T21:25:34.874Z,97.20
2019-03-28T21:28:07.258Z,96.90
2019-03-28T21:30:46.578Z,97.20
2019-03-28T21:33:07.929Z,97.00
2019-03-28T21:35:38.969Z,97.10
2019-03-28T21:38:08.113Z,97.40
2019-03-28T21:40:37.290Z,97.30
2019-03-28T21:43:06.271Z,97.40
2019-03-28T21:45:35.208Z,97.80
2019-03-28T21:48:04.473Z,97.90
2019-03-28T21:50:33.802Z,97.90
2019-03-28T21:53:02.730Z,97.50
2019-03-28T21:55:31.966Z,97.70
2019-03-28T21:58:01.078Z,97.70
2019-03-28T22:00:30.761Z,97.50
2019-03-28T22:02:59.849Z,97.80
2019-03-28T22:05:30.637Z,97.70
2019-03-28T22:07:59.990Z,97.60
2019-03-28T22:10:29.064Z,98.00
2019-03-28T22:12:58.544Z,97.80
2019-03-28T22:15:27.783Z,98.00
2019-03-28T22:17:56.952Z,97.70
2019-03-28T22:20:26.187Z,97.50
2019-03-28T22:22:55.386Z,98.00
2019-03-28T22:25:24.593Z,97.90
2019-03-28T22:27:53.728Z,98.00
2019-03-28T22:30:23.336Z,97.80
2019-03-28T22:32:52.616Z,98.40
2019-03-28T22:35:21.952Z,98.50
2019-03-28T22:37:51.489Z,98.70
2019-03-28T22:40:20.851Z,98.50
2019-03-28T22:42:50.872Z,98.10
2019-03-28T22:45:20.369Z,98.60
2019-03-28T22:47:51.281Z,98.80
2019-03-28T22:50:20.559Z,99.10
2019-03-28T22:52:50.801Z,98.60
2019-03-28T22:55:20.643Z,98.20
2019-03-28T22:57:53.921Z,98.00
2019-03-28T23:00:24.425Z,98.80
2019-03-28T23:02:55.130Z,98.70
2019-03-28T23:05:24.578Z,98.90
2019-03-28T23:07:55.320Z,99.40
2019-03-28T23:10:24.701Z,99.30
2019-03-28T23:12:54.033Z,99.40
2019-03-28T23:15:23.554Z,99.50
2019-03-28T23:17:53.776Z,99.40
2019-03-28T23:20:23.941Z,99.80
2019-03-28T23:22:54.097Z,98.60
2019-03-28T23:25:24.592Z,98.80
2019-03-28T23:27:54.536Z,99.20
2019-03-28T23:30:24.976Z,99.90
2019-03-28T23:32:54.937Z,99.90
2019-03-28T23:35:24.776Z,99.90
2019-03-28T23:37:54.139Z,99.90
2019-03-28T23:40:26.179Z,99.90
2019-03-28T23:42:54.200Z,99.90
2019-03-28T23:45:23.258Z,99.80
2019-03-28T23:47:52.754Z,99.90
2019-03-28T23:50:22.067Z,99.90
2019-03-28T23:52:51.555Z,99.90
2019-03-28T23:55:23.453Z,99.90
2019-03-28T23:57:52.459Z,99.90
